Serra Branca, Brazil
Current Conditions -  °F | °C
As of 6:00 PM on Saturday 25 Oct 2014 (Local Time) from SBKG Reporting Station
Few Clouds Few Clouds  
Wind Chill: 75°   Ceiling: Unl
Heat Index: 75°   Visibility: 6mi
Dew Point: 61°   Wind: 3mph
Humidity: 61%   Direction: 110°ESE
Pressure: 29.97"   Gusts: NA
Location:  7.48°S, 36.66°W
Report Text: SBKG 252100Z 11003KT 9999 FEW030 24/16 Q1015
Loading
Personal Weather Stations






























Interactive Weather Map
Tropical Storm Tracking
New forecast layout! Learn more

10-Day Weather Forecast

Advertisements
Track Severe Weather on mobile